Time;durP1;ratioP1;P1;durP2;ratioP2;P2;SDS_P1;SDS_P2;PMS_P1;PMS_P2;Temp;Humidity;BMP_temperature;BMP_pressure;BME280_temperature;BME280_humidity;BME280_pressure;Samples;Min_cycle;Max_cycle;Signal;HPM_P1;HPM_P2
2022/01/06 00:00:11;;;;;;;21.40;3.15;;;;;;;4.58;83.60;101712.69;5024540;28;20240;-83
2022/01/06 00:02:37;;;;;;;19.40;2.17;;;;;;;4.58;83.95;101710.97;5016970;28;20053;-84
2022/01/06 00:05:06;;;;;;;19.40;2.22;;;;;;;4.59;83.97;101709.22;5019594;28;20029;-83
2022/01/06 00:07:32;;;;;;;16.77;1.98;;;;;;;4.57;83.18;101718.75;5016528;28;20129;-83
2022/01/06 00:09:57;;;;;;;11.68;1.75;;;;;;;4.57;83.76;101718.75;5024535;28;20032;-84
2022/01/06 00:12:29;;;;;;;21.15;2.50;;;;;;;4.57;84.09;101723.94;5007852;28;20037;-83
2022/01/06 00:15:06;;;;;;;11.30;1.83;;;;;;;4.57;83.71;101726.53;5017109;28;20240;-83
2022/01/06 00:18:08;;;;;;;10.88;1.60;;;;;;;4.57;83.82;101723.94;5024255;28;20064;-84
2022/01/06 00:25:49;;;;;;;14.10;2.13;;;;;;;4.57;83.47;101732.56;5007968;28;20277;-83
2022/01/06 00:28:14;;;;;;;12.32;2.97;;;;;;;4.54;83.48;101729.13;5036768;28;20129;-83
2022/01/06 00:30:40;;;;;;;7.50;1.50;;;;;;;4.56;83.73;101732.56;5042215;28;20033;-83
2022/01/06 00:33:05;;;;;;;11.10;2.08;;;;;;;4.56;83.49;101735.16;5041210;28;20052;-83
2022/01/06 00:35:31;;;;;;;9.27;1.90;;;;;;;4.56;84.31;101733.44;5033887;28;20052;-83
2022/01/06 00:37:57;;;;;;;12.90;1.98;;;;;;;4.54;83.91;101724.78;5000505;28;20051;-83
2022/01/06 00:40:22;;;;;;;12.75;2.20;;;;;;;4.52;83.49;101728.25;5011539;28;20076;-83
2022/01/06 00:42:48;;;;;;;16.92;2.55;;;;;;;4.54;84.09;101729.13;4994948;28;20236;-82
2022/01/06 00:45:14;;;;;;;8.98;1.65;;;;;;;4.52;83.48;101725.66;5017156;28;20342;-83
2022/01/06 00:47:39;;;;;;;11.45;1.70;;;;;;;4.51;84.02;101727.41;5014635;28;20041;-82
2022/01/06 00:50:05;;;;;;;18.08;2.45;;;;;;;4.53;84.84;101729.97;4988270;28;20034;-83
2022/01/06 00:52:31;;;;;;;14.98;2.30;;;;;;;4.51;84.69;101726.53;4998826;28;20377;-84
2022/01/06 00:54:56;;;;;;;7.03;1.55;;;;;;;4.49;84.39;101733.44;5019302;28;20400;-83
2022/01/06 00:57:22;;;;;;;11.00;2.58;;;;;;;4.45;84.08;101730.00;4999160;28;20037;-83
2022/01/06 00:59:47;;;;;;;17.83;2.22;;;;;;;4.44;84.22;101733.47;5011257;28;20232;-82
2022/01/06 01:02:12;;;;;;;10.35;1.90;;;;;;;4.42;84.46;101742.94;5012598;28;20045;-84
2022/01/06 01:04:38;;;;;;;17.02;2.10;;;;;;;4.41;84.44;101742.09;5017920;28;20128;-83
2022/01/06 01:07:03;;;;;;;14.45;2.50;;;;;;;4.39;84.53;101743.84;5019443;28;20324;-83
2022/01/06 01:09:30;;;;;;;13.95;1.83;;;;;;;4.41;85.15;101747.28;5022459;28;20045;-84
2022/01/06 01:11:56;;;;;;;19.10;2.70;;;;;;;4.41;84.74;101751.63;5004567;28;20037;-83
2022/01/06 01:14:30;;;;;;;13.25;2.50;;;;;;;4.40;84.84;101753.34;5005496;28;20088;-83
2022/01/06 01:17:01;;;;;;;14.75;2.00;;;;;;;4.39;84.60;101746.44;5006174;28;20045;-83
2022/01/06 01:19:27;;;;;;;17.42;2.35;;;;;;;4.37;83.76;101753.34;4988233;28;20042;-83
2022/01/06 01:21:53;;;;;;;12.65;1.73;;;;;;;4.36;83.79;101759.38;5020972;28;20068;-83
2022/01/06 01:24:18;;;;;;;12.07;1.88;;;;;;;4.34;82.84;101761.13;5021221;28;20105;-83
2022/01/06 01:26:44;;;;;;;13.90;2.60;;;;;;;4.30;82.30;101759.41;5021597;28;20045;-83
2022/01/06 01:29:13;;;;;;;13.65;2.38;;;;;;;4.30;82.38;101769.78;5021067;28;20053;-82
2022/01/06 01:31:44;;;;;;;8.23;1.80;;;;;;;4.30;82.54;101769.78;5005621;28;20087;-83
2022/01/06 01:34:10;;;;;;;7.35;1.40;;;;;;;4.33;83.02;101768.91;5021097;28;20038;-83
2022/01/06 01:36:36;;;;;;;10.07;2.00;;;;;;;4.34;83.41;101771.50;4999521;28;20576;-83
2022/01/06 01:39:01;;;;;;;9.23;1.42;;;;;;;4.37;84.10;101774.09;5001085;28;20050;-83
2022/01/06 01:41:27;;;;;;;12.75;1.88;;;;;;;4.34;83.30;101776.69;4994908;28;20036;-83
2022/01/06 01:43:54;;;;;;;7.15;1.33;;;;;;;4.33;83.14;101780.16;5005184;28;20349;-83
2022/01/06 01:46:27;;;;;;;6.15;1.30;;;;;;;4.34;83.69;101775.81;5004323;28;20080;-83
2022/01/06 01:49:16;;;;;;;7.15;1.25;;;;;;;4.32;82.43;101778.41;4990508;28;20257;-83
2022/01/06 01:51:38;;;;;;;8.07;0.95;;;;;;;4.29;81.20;101774.94;5012085;28;20081;-83
2022/01/06 01:54:04;;;;;;;5.07;0.95;;;;;;;4.26;81.31;101780.13;5005480;28;20046;-83
2022/01/06 01:56:30;;;;;;;5.65;1.23;;;;;;;4.28;82.63;101794.00;5009825;28;20101;-83
2022/01/06 01:58:55;;;;;;;6.88;1.27;;;;;;;4.29;83.69;101790.50;5023227;28;20062;-83
2022/01/06 02:04:55;;;;;;;9.93;1.95;;;;;;;4.27;82.83;101794.84;4985430;28;20136;-83
2022/01/06 02:07:21;;;;;;;4.75;1.10;;;;;;;4.28;83.75;101794.00;5009083;28;20057;-83
2022/01/06 02:09:46;;;;;;;8.65;1.48;;;;;;;4.27;84.22;101795.69;5009473;28;20232;-82
2022/01/06 02:12:23;;;;;;;10.05;2.55;;;;;;;4.24;84.40;101795.72;5022259;28;20034;-83
2022/01/06 02:14:48;;;;;;;9.00;1.65;;;;;;;4.21;84.32;101798.28;4995934;28;20276;-83
2022/01/06 02:17:13;;;;;;;7.20;0.90;;;;;;;4.19;84.62;101803.47;5024179;28;20033;-83
2022/01/06 02:19:39;;;;;;;17.80;2.10;;;;;;;4.16;84.52;101805.19;5007765;28;20046;-83
2022/01/06 02:22:04;;;;;;;10.48;1.55;;;;;;;4.14;84.54;101802.59;5006346;28;20330;-83
2022/01/06 02:24:30;;;;;;;7.38;1.52;;;;;;;4.12;84.71;101806.06;5004663;28;20022;-83
2022/01/06 02:26:55;;;;;;;9.23;1.55;;;;;;;4.13;84.85;101806.06;4995067;28;20034;-84
2022/01/06 02:29:20;;;;;;;9.05;1.58;;;;;;;4.12;85.17;101806.06;4991896;28;20037;-83
2022/01/06 02:31:46;;;;;;;8.38;1.75;;;;;;;4.10;85.15;101813.84;5017680;28;20253;-83
2022/01/06 02:34:12;;;;;;;14.85;1.77;;;;;;;4.07;84.89;101808.63;4999955;28;20097;-83
2022/01/06 02:36:37;;;;;;;14.45;1.40;;;;;;;4.04;84.81;101811.25;4989956;28;20061;-84
2022/01/06 02:39:03;;;;;;;10.93;1.50;;;;;;;4.01;84.98;101811.22;5004487;28;20237;-83
2022/01/06 02:41:28;;;;;;;6.30;1.15;;;;;;;3.98;84.59;101819.88;5005473;28;20159;-82
2022/01/06 02:43:55;;;;;;;19.98;2.22;;;;;;;3.93;84.92;101811.22;5004119;28;20034;-83
2022/01/06 02:46:21;;;;;;;7.47;1.33;;;;;;;3.90;84.73;101811.19;5005910;28;20317;-84
2022/01/06 02:48:46;;;;;;;7.18;1.30;;;;;;;3.89;84.66;101814.63;5006313;28;20038;-83
2022/01/06 02:51:11;;;;;;;13.57;1.52;;;;;;;3.89;84.65;101824.16;5005097;28;20046;-84
2022/01/06 02:53:37;;;;;;;11.40;1.40;;;;;;;3.88;85.15;101820.69;5006163;28;20073;-83
2022/01/06 02:56:03;;;;;;;12.90;2.83;;;;;;;3.87;84.99;101826.72;5005049;28;20413;-83
2022/01/06 02:58:28;;;;;;;13.90;1.77;;;;;;;3.88;84.45;101836.25;5003283;28;20076;-83
2022/01/06 03:00:53;;;;;;;8.98;2.10;;;;;;;3.84;83.34;101825.00;5004784;28;20038;-83
2022/01/06 03:03:19;;;;;;;8.65;1.13;;;;;;;3.85;84.25;101838.81;5003961;28;20113;-83
2022/01/06 03:05:44;;;;;;;10.00;1.45;;;;;;;3.88;84.77;101838.84;5020317;28;20092;-82
2022/01/06 03:08:10;;;;;;;9.18;1.50;;;;;;;3.90;85.41;101838.84;4986823;28;20237;-82
2022/01/06 03:10:40;;;;;;;9.40;1.77;;;;;;;3.88;85.24;101831.06;5003980;28;20057;-83
2022/01/06 03:13:06;;;;;;;14.75;1.73;;;;;;;3.84;84.90;101835.38;5003447;28;20131;-83
2022/01/06 03:15:31;;;;;;;9.40;1.45;;;;;;;3.78;84.81;101837.97;5005224;28;20030;-83
2022/01/06 03:17:57;;;;;;;8.18;1.48;;;;;;;3.75;84.82;101837.09;4987448;28;20047;-83
2022/01/06 03:20:23;;;;;;;8.38;1.73;;;;;;;3.70;84.73;101846.56;5004468;28;20038;-83
2022/01/06 03:22:53;;;;;;;6.95;1.45;;;;;;;3.67;85.16;101844.81;5020294;28;20045;-82
2022/01/06 03:25:18;;;;;;;;;;;;;;;3.68;85.62;101833.59;5005594;28;20057;-83
2022/01/06 03:27:43;;;;;;;6.27;1.10;;;;;;;3.67;85.72;101828.41;5003832;28;19906;-83
2022/01/06 03:30:11;;;;;;;10.35;1.48;;;;;;;3.65;85.79;101831.84;5003066;28;20297;-83
2022/01/06 03:32:36;;;;;;;12.63;1.58;;;;;;;3.64;85.89;101830.13;5019851;28;20054;-83
2022/01/06 03:35:02;;;;;;;23.98;2.45;;;;;;;3.61;85.76;101835.28;5003597;28;20241;-83
2022/01/06 03:37:28;;;;;;;12.65;2.33;;;;;;;3.58;85.71;101840.44;5027620;28;20071;-83
2022/01/06 03:39:53;;;;;;;8.93;1.45;;;;;;;3.54;85.65;101846.47;5026289;28;20029;-83
2022/01/06 03:42:18;;;;;;;8.35;1.30;;;;;;;3.51;85.53;101845.59;5026011;28;20351;-83
2022/01/06 03:44:44;;;;;;;10.02;1.38;;;;;;;3.48;85.57;101849.03;5025731;28;20041;-83
2022/01/06 03:47:09;;;;;;;7.85;1.35;;;;;;;3.45;85.67;101860.25;5009132;28;20484;-83
2022/01/06 03:49:35;;;;;;;8.98;2.13;;;;;;;3.43;85.48;101877.50;5026279;28;20116;-83
2022/01/06 03:52:00;;;;;;;8.77;1.55;;;;;;;3.38;85.06;101878.34;5007476;28;20360;-83
2022/01/06 03:54:30;;;;;;;18.02;1.80;;;;;;;3.36;85.04;101882.63;5024589;28;20040;-84
2022/01/06 03:56:56;;;;;;;11.65;1.35;;;;;;;3.35;85.31;101896.47;5024783;28;20053;-83
2022/01/06 03:59:22;;;;;;;8.90;1.23;;;;;;;3.37;85.48;101887.84;5025587;28;20037;-82
2022/01/06 04:01:47;;;;;;;4.70;0.93;;;;;;;3.39;85.79;101888.69;5025612;28;20037;-82
2022/01/06 04:04:13;;;;;;;13.60;1.70;;;;;;;3.42;85.85;101875.78;5025461;28;20029;-83
2022/01/06 04:06:39;;;;;;;7.22;0.73;;;;;;;3.46;86.26;101866.31;5007509;28;20332;-83
2022/01/06 04:09:04;;;;;;;3.45;0.75;;;;;;;3.49;86.18;101871.47;5007702;28;20029;-83
2022/01/06 04:11:30;;;;;;;9.70;1.23;;;;;;;3.55;86.53;101873.25;5009058;28;20029;-83
2022/01/06 04:13:56;;;;;;;8.20;1.45;;;;;;;3.61;86.79;101874.13;5024056;28;20033;-82
2022/01/06 04:16:21;;;;;;;3.38;0.70;;;;;;;3.64;86.57;101866.38;5025173;28;20037;-82
2022/01/06 04:18:47;;;;;;;3.28;0.80;;;;;;;3.70;86.77;101873.31;5025279;28;20075;-83
2022/01/06 04:21:12;;;;;;;1.70;0.50;;;;;;;3.73;86.86;101878.53;5043086;28;20033;-83
2022/01/06 04:23:38;;;;;;;8.75;0.90;;;;;;;3.77;86.75;101877.66;5024954;28;20108;-82
2022/01/06 04:26:03;;;;;;;6.10;0.65;;;;;;;3.79;86.72;101873.34;5042063;28;20086;-82
2022/01/06 04:28:28;;;;;;;3.03;0.80;;;;;;;3.82;86.72;101878.56;5042879;28;20036;-83
2022/01/06 04:30:54;;;;;;;8.15;0.80;;;;;;;3.84;87.22;101875.97;5041831;28;20045;-82
2022/01/06 04:33:19;;;;;;;3.72;0.68;;;;;;;3.84;87.02;101878.56;5024706;28;20053;-82
2022/01/06 04:35:45;;;;;;;5.05;1.13;;;;;;;3.82;85.97;101888.94;5008630;28;20367;-82
2022/01/06 04:38:10;;;;;;;6.40;0.80;;;;;;;3.85;86.00;101885.47;5041323;28;20067;-82
2022/01/06 04:40:36;;;;;;;4.50;0.80;;;;;;;3.87;86.55;101886.34;5024802;28;20037;-83
2022/01/06 04:43:01;;;;;;;4.20;0.50;;;;;;;3.88;86.76;101879.44;5008244;28;20261;-82
2022/01/06 04:45:27;;;;;;;2.10;0.70;;;;;;;3.88;86.33;101882.03;5041842;28;20268;-82
2022/01/06 04:47:52;;;;;;;3.20;0.70;;;;;;;3.88;86.60;101885.50;5007973;28;20103;-83
2022/01/06 04:50:17;;;;;;;6.97;1.27;;;;;;;3.90;86.95;101893.28;5024555;28;20029;-83
2022/01/06 04:52:43;;;;;;;4.78;0.50;;;;;;;3.89;86.70;101888.94;5024358;28;20042;-82
2022/01/06 04:55:08;;;;;;;2.85;0.43;;;;;;;3.84;86.60;101892.38;5042260;28;20033;-83
2022/01/06 04:57:34;;;;;;;5.38;0.50;;;;;;;3.81;86.36;101899.28;5005235;28;20034;-82
2022/01/06 04:59:59;;;;;;;6.00;1.48;;;;;;;3.80;86.45;101888.06;5000464;28;20041;-83
2022/01/06 05:02:24;;;;;;;6.78;0.70;;;;;;;3.79;86.58;101904.44;5007359;28;20041;-82
2022/01/06 05:04:50;;;;;;;2.50;0.32;;;;;;;3.80;86.16;101897.53;5024330;28;20033;-82
2022/01/06 05:07:15;;;;;;;5.07;0.93;;;;;;;3.82;86.92;101904.47;5024214;28;20034;-82
2022/01/06 05:09:41;;;;;;;6.22;1.10;;;;;;;3.84;87.30;101901.91;5008006;28;20358;-82
2022/01/06 05:12:06;;;;;;;4.72;0.90;;;;;;;3.87;87.42;101904.47;5024491;28;20689;-82
2022/01/06 05:14:32;;;;;;;2.55;0.98;;;;;;;3.89;87.79;101902.75;5007466;28;20036;-82
2022/01/06 05:16:57;;;;;;;4.30;0.90;;;;;;;3.89;87.62;101909.66;5023347;28;20036;-82
2022/01/06 05:19:23;;;;;;;7.25;1.33;;;;;;;3.84;87.25;101907.94;5004392;28;20049;-83
2022/01/06 05:21:49;;;;;;;4.25;0.82;;;;;;;3.82;86.95;101909.66;5007437;28;20025;-82
2022/01/06 05:24:16;;;;;;;2.80;0.50;;;;;;;3.79;86.79;101911.38;5041084;28;20097;-82
2022/01/06 05:26:42;;;;;;;3.90;0.90;;;;;;;3.77;87.05;101910.50;5040946;28;20101;-81
2022/01/06 05:29:08;;;;;;;7.10;1.02;;;;;;;3.75;87.19;101912.22;5006711;28;20109;-82
2022/01/06 05:31:34;;;;;;;3.05;0.52;;;;;;;3.73;87.09;101911.31;5023886;28;20214;-83
2022/01/06 05:33:59;;;;;;;8.30;1.25;;;;;;;3.70;87.13;101911.31;5023442;28;20069;-83
2022/01/06 05:36:24;;;;;;;3.78;0.50;;;;;;;3.68;87.26;101913.06;5003824;28;20049;-83
2022/01/06 05:38:50;;;;;;;6.97;0.70;;;;;;;3.64;87.24;101910.44;5020915;28;20036;-83
2022/01/06 05:41:15;;;;;;;6.30;1.10;;;;;;;3.61;87.18;101907.81;5023356;28;20037;-81
2022/01/06 05:43:40;;;;;;;6.95;1.08;;;;;;;3.59;87.04;101911.28;5007695;28;20029;-83
2022/01/06 05:46:06;;;;;;;5.05;1.00;;;;;;;3.54;87.02;101906.03;5015131;28;20325;-83
2022/01/06 05:48:31;;;;;;;4.38;0.85;;;;;;;3.52;87.01;101912.09;5016939;28;20053;-83
2022/01/06 05:50:57;;;;;;;6.53;0.88;;;;;;;3.48;87.00;101908.63;5007429;28;20313;-82
2022/01/06 05:53:22;;;;;;;4.22;0.70;;;;;;;3.45;87.00;101922.41;5041188;28;20095;-83
2022/01/06 05:55:48;;;;;;;12.68;1.10;;;;;;;3.40;86.78;101926.72;5022628;28;20085;-82
2022/01/06 05:58:13;;;;;;;7.43;1.25;;;;;;;3.37;86.71;101924.09;5022311;28;20078;-83
2022/01/06 06:00:39;;;;;;;3.88;0.63;;;;;;;3.33;86.44;101932.69;5023083;28;20049;-82
2022/01/06 06:03:04;;;;;;;5.60;0.70;;;;;;;3.29;86.37;101935.25;5022590;28;20100;-83
2022/01/06 06:05:30;;;;;;;5.13;1.20;;;;;;;3.25;86.67;101934.34;5003771;28;20317;-83
2022/01/06 06:07:55;;;;;;;6.13;1.20;;;;;;;3.22;86.27;101935.22;5019473;28;20026;-83
2022/01/06 06:10:20;;;;;;;4.78;0.88;;;;;;;3.18;86.47;101943.78;5006323;28;20037;-83
2022/01/06 06:12:48;;;;;;;1.92;0.68;;;;;;;3.14;86.33;101942.03;5040817;28;20033;-82
2022/01/06 06:15:14;;;;;;;6.28;0.90;;;;;;;3.10;86.48;101948.06;5041660;28;20369;-82
2022/01/06 06:17:39;;;;;;;5.75;1.35;;;;;;;3.07;86.26;101942.84;5007082;28;20041;-82
2022/01/06 06:20:05;;;;;;;4.15;1.10;;;;;;;3.02;86.31;101945.41;5002873;28;20042;-82
2022/01/06 06:22:30;;;;;;;4.90;1.08;;;;;;;3.00;86.31;101951.41;5020071;28;20072;-83
2022/01/06 06:24:56;;;;;;;6.78;1.00;;;;;;;2.97;86.56;101947.09;5040287;28;20071;-82
2022/01/06 06:27:21;;;;;;;5.95;0.90;;;;;;;2.96;86.66;101955.69;5006913;28;20033;-83
2022/01/06 06:29:47;;;;;;;4.50;1.25;;;;;;;2.93;86.55;101960.88;5004034;28;20034;-83
2022/01/06 06:32:12;;;;;;;6.40;0.98;;;;;;;2.92;86.48;101966.03;5006372;28;20045;-82
2022/01/06 06:34:38;;;;;;;3.58;0.77;;;;;;;2.86;86.46;101970.28;4994518;28;20033;-83
2022/01/06 06:37:03;;;;;;;8.07;1.60;;;;;;;2.83;86.46;101972.81;5043819;28;20048;-82
2022/01/06 06:39:28;;;;;;;5.07;1.80;;;;;;;2.81;86.49;101971.09;5010848;28;20087;-82
2022/01/06 06:41:54;;;;;;;2.78;0.63;;;;;;;2.77;86.61;101975.38;5026060;28;20037;-82
2022/01/06 06:44:19;;;;;;;5.45;0.88;;;;;;;2.77;86.56;101977.09;5006485;28;20061;-81
2022/01/06 06:46:45;;;;;;;5.55;1.05;;;;;;;2.74;86.72;101983.09;5041206;28;20240;-82
2022/01/06 06:49:10;;;;;;;3.38;0.80;;;;;;;2.72;86.49;101981.34;5025747;28;20052;-83
2022/01/06 06:51:36;;;;;;;6.43;1.30;;;;;;;2.71;86.71;101993.44;5044175;28;20045;-82
2022/01/06 06:54:01;;;;;;;3.80;1.10;;;;;;;2.69;86.90;101984.75;5025813;28;20064;-83
2022/01/06 06:56:26;;;;;;;3.20;0.85;;;;;;;2.68;87.06;101989.06;4991412;28;20034;-81
2022/01/06 06:58:52;;;;;;;6.80;1.17;;;;;;;2.67;87.14;101987.34;5008869;28;20336;-83
2022/01/06 07:01:17;;;;;;;5.53;0.95;;;;;;;2.68;87.01;101980.44;5025359;28;20044;-82
2022/01/06 07:03:43;;;;;;;6.80;1.13;;;;;;;2.64;87.02;101979.56;5001479;28;20044;-83
2022/01/06 07:06:09;;;;;;;4.03;1.23;;;;;;;2.60;86.67;101989.84;5019926;28;20029;-83
2022/01/06 07:08:34;;;;;;;4.95;1.20;;;;;;;2.57;86.72;101990.69;5026648;28;20033;-83
2022/01/06 07:10:59;;;;;;;10.75;1.30;;;;;;;2.54;86.68;101985.47;4997441;28;20022;-83
2022/01/06 07:13:25;;;;;;;5.78;1.13;;;;;;;2.52;86.75;101979.41;5003335;28;20025;-83
2022/01/06 07:15:50;;;;;;;6.18;1.10;;;;;;;2.49;86.72;101982.84;5035385;28;20329;-82
2022/01/06 07:18:16;;;;;;;5.97;1.48;;;;;;;2.49;86.79;101990.59;5026191;28;20045;-82
2022/01/06 07:20:41;;;;;;;4.32;1.40;;;;;;;2.47;86.80;101988.84;5033880;28;20037;-83
2022/01/06 07:23:07;;;;;;;12.13;1.98;;;;;;;2.44;86.73;101984.50;5038365;28;20520;-82
2022/01/06 07:25:32;;;;;;;9.82;1.55;;;;;;;2.43;87.22;101989.66;5025211;28;20255;-82
2022/01/06 07:27:58;;;;;;;3.90;1.40;;;;;;;2.42;87.04;101988.78;5023329;28;20040;-83
2022/01/06 07:30:24;;;;;;;4.65;2.35;;;;;;;2.40;86.98;101998.25;5022859;28;20037;-83
2022/01/06 07:32:50;;;;;;;8.55;1.55;;;;;;;2.40;87.13;101987.03;5011703;28;20045;-81
2022/01/06 07:35:16;;;;;;;4.45;1.75;;;;;;;2.39;87.16;101993.06;5005417;28;20051;-83
2022/01/06 07:37:41;;;;;;;6.25;1.77;;;;;;;2.39;87.20;102000.81;5007355;28;20045;-81
2022/01/06 07:40:08;;;;;;;7.45;1.85;;;;;;;2.37;87.18;102000.81;5041421;28;20040;-81
2022/01/06 07:42:33;;;;;;;11.48;2.28;;;;;;;2.36;87.29;101996.47;5001566;28;20316;-81
2022/01/06 07:45:00;;;;;;;13.70;2.97;;;;;;;2.35;87.14;102004.19;5005897;28;20052;-83
2022/01/06 07:47:26;;;;;;;13.45;1.85;;;;;;;2.33;87.27;102003.31;5041646;28;20056;-82
2022/01/06 07:49:52;;;;;;;11.20;2.17;;;;;;;2.31;86.95;102003.31;5036508;28;20043;-83
2022/01/06 07:52:18;;;;;;;16.35;1.85;;;;;;;2.29;87.29;102000.72;5007892;28;20328;-83
2022/01/06 07:54:43;;;;;;;10.10;1.75;;;;;;;2.28;87.35;102011.88;5031789;28;20324;-83
2022/01/06 07:57:09;;;;;;;13.48;3.08;;;;;;;2.27;87.31;102012.75;5040889;28;20044;-82
2022/01/06 07:59:34;;;;;;;9.90;1.90;;;;;;;2.25;87.41;102011.84;4988117;28;20083;-83
2022/01/06 08:01:59;;;;;;;9.73;2.03;;;;;;;2.24;87.44;102015.28;5036392;28;20236;-82
2022/01/06 08:04:25;;;;;;;7.03;2.58;;;;;;;2.23;87.52;102018.72;5026999;28;20041;-83
2022/01/06 08:06:50;;;;;;;9.25;2.38;;;;;;;2.23;87.60;102020.44;5003256;28;20037;-82
2022/01/06 08:09:16;;;;;;;11.35;3.00;;;;;;;2.24;87.79;102025.63;5041047;28;20371;-83
2022/01/06 08:11:41;;;;;;;10.55;4.55;;;;;;;2.25;87.84;102031.66;5025127;28;20033;-82
2022/01/06 08:14:07;;;;;;;16.20;4.38;;;;;;;2.24;87.91;102033.38;5006285;28;20037;-83
2022/01/06 08:16:32;;;;;;;14.35;4.38;;;;;;;2.26;88.14;102039.44;4995846;28;20089;-83
2022/01/06 08:18:57;;;;;;;19.42;5.15;;;;;;;2.27;88.09;102038.59;5038781;28;20037;-83
2022/01/06 08:21:24;;;;;;;17.58;4.93;;;;;;;2.27;88.25;102032.53;5023400;28;20104;-82
2022/01/06 08:23:50;;;;;;;17.73;4.75;;;;;;;2.30;88.41;102040.34;5031180;28;20041;-82
2022/01/06 08:26:15;;;;;;;12.63;4.53;;;;;;;2.32;88.49;102042.97;5010657;28;20034;-81
2022/01/06 08:28:42;;;;;;;16.10;5.20;;;;;;;2.33;88.31;102042.97;5017841;28;20094;-83
2022/01/06 08:31:07;;;;;;;12.95;4.80;;;;;;;2.36;88.90;102042.13;5001556;28;20037;-82
2022/01/06 08:33:33;;;;;;;13.63;4.10;;;;;;;2.39;89.10;102047.38;5016344;28;20120;-82
2022/01/06 08:35:58;;;;;;;14.95;4.85;;;;;;;2.42;89.53;102049.97;5032636;28;20371;-82
2022/01/06 08:38:24;;;;;;;10.75;4.20;;;;;;;2.45;89.46;102047.44;5018728;28;20172;-81
2022/01/06 08:40:49;;;;;;;17.00;5.07;;;;;;;2.48;89.38;102048.34;5019818;28;20037;-82
2022/01/06 08:43:15;;;;;;;13.15;3.78;;;;;;;2.49;89.28;102044.03;5037846;28;20261;-83
2022/01/06 08:45:40;;;;;;;13.10;3.60;;;;;;;2.50;89.14;102046.63;4999877;28;20033;-83
2022/01/06 08:48:06;;;;;;;12.68;4.13;;;;;;;2.52;89.43;102045.78;5005758;28;20273;-83
2022/01/06 08:50:31;;;;;;;11.90;3.60;;;;;;;2.55;89.65;102046.69;4982995;28;20037;-81
2022/01/06 08:53:00;;;;;;;10.13;3.95;;;;;;;2.57;89.66;102052.75;5003873;28;20434;-82
2022/01/06 08:55:26;;;;;;;11.23;4.05;;;;;;;2.59;89.99;102056.22;5014664;28;20033;-83
2022/01/06 08:57:53;;;;;;;13.73;4.25;;;;;;;2.64;90.01;102061.47;5018422;28;20440;-82
2022/01/06 09:00:18;;;;;;;13.68;4.75;;;;;;;2.66;89.89;102058.03;5020801;28;20053;-82
2022/01/06 09:02:44;;;;;;;7.88;4.45;;;;;;;2.68;90.04;102058.91;5004618;28;20037;-82
2022/01/06 09:05:10;;;;;;;10.93;5.68;;;;;;;2.72;90.06;102057.22;5000360;28;20045;-83
2022/01/06 09:07:35;;;;;;;11.35;4.78;;;;;;;2.76;90.17;102050.38;5034769;28;20065;-82
2022/01/06 09:10:01;;;;;;;11.57;4.13;;;;;;;2.80;90.24;102047.84;5001646;28;20328;-83
2022/01/06 09:12:27;;;;;;;6.78;3.63;;;;;;;2.85;90.43;102050.47;5020087;28;20126;-83
2022/01/06 09:14:52;;;;;;;11.43;3.45;;;;;;;2.90;90.27;102053.13;5020955;28;20327;-83
2022/01/06 09:17:18;;;;;;;6.38;3.30;;;;;;;2.95;90.72;102047.13;5021881;28;20120;-83
2022/01/06 09:19:43;;;;;;;8.65;3.88;;;;;;;3.00;90.79;102049.75;5029772;28;20038;-81
2022/01/06 09:22:08;;;;;;;14.63;3.20;;;;;;;3.05;90.95;102055.84;4977216;28;20158;-83
2022/01/06 09:24:34;;;;;;;8.77;3.35;;;;;;;3.09;90.97;102060.19;4996859;28;20053;-82
2022/01/06 09:26:59;;;;;;;12.57;2.92;;;;;;;3.15;91.08;102057.69;4996516;28;20045;-82
2022/01/06 09:29:25;;;;;;;10.50;2.90;;;;;;;3.18;90.94;102051.66;5011526;28;20045;-82
2022/01/06 09:31:50;;;;;;;12.15;2.55;;;;;;;3.22;91.22;102056.91;5000837;28;20037;-82
2022/01/06 09:34:16;;;;;;;8.90;3.00;;;;;;;3.29;91.36;102056.94;5020242;28;20394;-82
2022/01/06 09:36:41;;;;;;;11.05;2.92;;;;;;;3.33;91.49;102056.09;5015769;28;20053;-82
2022/01/06 09:39:08;;;;;;;8.30;2.70;;;;;;;3.36;91.58;102062.19;5038776;28;20048;-82
2022/01/06 09:41:34;;;;;;;7.07;2.53;;;;;;;3.40;91.74;102069.13;5012678;28;20069;-83
2022/01/06 09:44:00;;;;;;;9.32;2.47;;;;;;;3.45;91.87;102063.97;4986507;28;20068;-82
2022/01/06 09:46:26;;;;;;;9.40;2.55;;;;;;;3.48;91.87;102061.44;4987126;28;20037;-82
2022/01/06 09:48:57;;;;;;;8.13;2.05;;;;;;;3.51;91.82;102064.06;5021536;28;20036;-83
2022/01/06 09:51:23;;;;;;;11.73;3.03;;;;;;;3.53;91.55;102069.22;5004474;28;20033;-83
2022/01/06 09:53:49;;;;;;;8.63;2.58;;;;;;;3.54;91.64;102066.66;4988776;28;20029;-83
2022/01/06 09:56:14;;;;;;;13.23;2.78;;;;;;;3.57;91.40;102069.28;5036846;28;20116;-83
2022/01/06 09:58:39;;;;;;;12.93;2.90;;;;;;;3.60;91.34;102076.19;5005425;28;20057;-83
2022/01/06 10:01:08;;;;;;;6.85;2.03;;;;;;;3.62;91.24;102077.94;5018372;28;20030;-83
2022/01/06 10:03:38;;;;;;;11.88;2.50;;;;;;;3.66;91.12;102081.44;5018866;28;20329;-83
2022/01/06 10:06:21;;;;;;;11.32;2.10;;;;;;;3.69;90.53;102078.84;5004766;28;20041;-83
2022/01/06 10:09:02;;;;;;;8.50;2.33;;;;;;;3.71;90.25;102078.88;5022204;28;20033;-82
2022/01/06 10:11:32;;;;;;;8.30;1.67;;;;;;;3.74;90.20;102079.75;5022788;28;20037;-83
2022/01/06 10:14:03;;;;;;;9.95;1.73;;;;;;;3.76;90.08;102078.03;5020332;28;20324;-82
2022/01/06 10:16:31;;;;;;;5.07;1.35;;;;;;;3.79;89.71;102077.22;5003484;28;20049;-82
2022/01/06 10:19:07;;;;;;;5.10;1.30;;;;;;;3.82;89.39;102079.81;5022395;28;20041;-83
2022/01/06 10:21:46;;;;;;;10.07;1.38;;;;;;;3.85;89.39;102074.66;5017103;28;20095;-83
2022/01/06 10:24:19;;;;;;;8.48;1.88;;;;;;;3.88;89.40;102073.81;5006496;28;20033;-82
2022/01/06 10:27:06;;;;;;;4.63;1.00;;;;;;;3.90;89.58;102070.38;5026870;28;20281;-82
2022/01/06 10:29:35;;;;;;;7.57;1.08;;;;;;;3.92;89.39;102076.44;5022801;28;20037;-82
2022/01/06 10:32:07;;;;;;;9.23;1.30;;;;;;;3.96;89.25;102066.94;5023702;28;20048;-83
2022/01/06 10:34:34;;;;;;;3.30;0.88;;;;;;;4.01;88.94;102066.13;5012323;28;20247;-82
2022/01/06 10:37:00;;;;;;;11.57;1.55;;;;;;;4.07;88.84;102061.84;5025771;28;20041;-82
2022/01/06 10:39:27;;;;;;;9.18;1.65;;;;;;;4.11;88.73;102061.88;5032426;28;20125;-82
2022/01/06 10:41:52;;;;;;;4.15;1.08;;;;;;;4.16;88.27;102062.75;5045170;28;20037;-82
2022/01/06 10:44:18;;;;;;;7.03;1.25;;;;;;;4.21;87.94;102063.63;5020846;28;20395;-83
2022/01/06 10:46:44;;;;;;;3.75;1.30;;;;;;;4.25;87.83;102059.34;5022163;28;20037;-83
2022/01/06 10:49:18;;;;;;;8.48;1.77;;;;;;;4.33;87.97;102067.16;5023575;28;20037;-82
2022/01/06 10:51:53;;;;;;;6.93;1.80;;;;;;;4.37;86.83;102068.91;5022115;28;20053;-83
2022/01/06 10:54:23;;;;;;;6.20;1.38;;;;;;;4.37;86.02;102061.13;5025033;28;20038;-83
2022/01/06 10:57:03;;;;;;;5.25;1.35;;;;;;;4.34;85.84;102067.16;5024523;28;20048;-83
2022/01/06 10:59:31;;;;;;;7.03;1.17;;;;;;;4.33;85.90;102067.16;5013103;28;20068;-83
2022/01/06 11:01:56;;;;;;;3.65;0.82;;;;;;;4.31;86.00;102071.47;5049052;28;20337;-83
2022/01/06 11:04:22;;;;;;;5.93;1.52;;;;;;;4.32;86.16;102068.03;4993510;28;20079;-83
2022/01/06 11:06:49;;;;;;;3.38;1.27;;;;;;;4.32;86.23;102065.44;5039829;28;20041;-82
2022/01/06 11:09:14;;;;;;;4.18;1.38;;;;;;;4.31;85.98;102072.34;5005134;28;20047;-83
2022/01/06 11:14:23;;;;;;;6.95;0.93;;;;;;;4.31;85.31;102071.47;5028577;28;20495;-83
2022/01/06 11:16:49;;;;;;;6.47;1.23;;;;;;;4.30;85.32;102070.59;5015057;28;20044;-83
2022/01/06 11:19:14;;;;;;;3.90;0.73;;;;;;;4.29;85.40;102070.59;5003550;28;20337;-83
2022/01/06 11:21:41;;;;;;;4.78;1.27;;;;;;;4.27;85.57;102070.59;4989322;28;20062;-83
2022/01/06 11:24:11;;;;;;;4.78;1.13;;;;;;;4.27;86.29;102068.00;5004380;28;20627;-83
2022/01/06 11:26:36;;;;;;;5.85;1.00;;;;;;;4.26;86.44;102063.69;5022211;28;20045;-84
2022/01/06 11:29:02;;;;;;;6.10;1.67;;;;;;;4.28;87.04;102063.69;4989100;28;20029;-83
2022/01/06 11:31:34;;;;;;;5.55;1.33;;;;;;;4.27;87.34;102055.03;5006305;28;20238;-83
2022/01/06 11:34:18;;;;;;;2.53;0.60;;;;;;;4.28;87.67;102048.13;4998563;28;20037;-83
2022/01/06 11:36:45;;;;;;;6.72;1.08;;;;;;;4.29;88.24;102050.69;5009803;28;20056;-84
2022/01/06 11:39:29;;;;;;;5.85;1.00;;;;;;;4.30;88.43;102043.81;5015210;28;20049;-83